Terminal Aerodrome Forecast
Issued by NWS

Home | Current Version | Previous Version | Text Only | Print | Product List | Glossary On
Versions: 1 2 3 4 5 6 7 8 9 10 11 12 13 14
000
FTUS43 KDMX 201316 AAA
TAFOTM
TAF AMD
KOTM 201316Z 2013/2112 15005KT P6SM VCSH SCT050 BKN100
     FM201800 17008KT P6SM FEW050 BKN120
     FM210800 14007KT 5SM BR VCTS BKN030CB=

USA.gov is the U.S. government's official web portal to all federal, state and local government web resources and services.